KAC107 RPLL-VTBS
Flight info
| Callsign | KAC107 |
|---|---|
| Flight time | N/A |
| Altitude | 38000 |
| Route | SIRCA2R SIRCA L628 DODUS/N0473F340 L628 ARESI/K0885F380 L628 PCA G474 ANINA/N0475F380 G474 VEMKO M633 DULEM TUMGA1C |
| Aircraft | B77W/H-SDE1E2E3FGHIJ2J3J4J5M1RWXY/LB1D1 |
Departure
| Time | 2026-05-07 20:51 |
|---|---|
| Airport | Ninoy Aquino International Airport (RPLL) |
Arrival
| Time | N/A |
|---|---|
| Airport | Suvarnabhumi Airport (VTBS) |
| Time | Latitude | Longitude | Altitude | Speed | Heading |
|---|---|---|---|---|---|
| 2026-05-07 20:51 | 14.69889 | 121.09722 | 12378 ft | 388 kts | 292° |
| 2026-05-07 20:51 | 14.70391 | 121.06979 | 13290 ft | 393 kts | 269° |
| 2026-05-07 20:52 | 14.70217 | 121.04183 | 14119 ft | 396 kts | 265° |
| 2026-05-07 20:52 | 14.70054 | 121.01306 | 14939 ft | 403 kts | 267° |
| 2026-05-07 20:52 | 14.69682 | 120.98436 | 15700 ft | 404 kts | 253° |
| 2026-05-07 20:52 | 14.68691 | 120.95696 | 16271 ft | 411 kts | 248° |
| 2026-05-07 20:53 | 14.67625 | 120.92960 | 16998 ft | 417 kts | 248° |
| 2026-05-07 20:53 | 14.66568 | 120.90158 | 17847 ft | 419 kts | 249° |
| 2026-05-07 20:53 | 14.65540 | 120.87337 | 18662 ft | 422 kts | 249° |
| 2026-05-07 20:53 | 14.64508 | 120.84463 | 19381 ft | 427 kts | 250° |
| 2026-05-07 20:54 | 14.63469 | 120.81565 | 20090 ft | 432 kts | 250° |
| 2026-05-07 20:54 | 14.62419 | 120.78637 | 20785 ft | 436 kts | 249° |
| 2026-05-07 20:54 | 14.61356 | 120.75681 | 21464 ft | 440 kts | 249° |
| 2026-05-07 20:54 | 14.60296 | 120.72734 | 22115 ft | 444 kts | 249° |
| 2026-05-07 20:55 | 14.59211 | 120.69725 | 22742 ft | 448 kts | 249° |
| 2026-05-07 20:55 | 14.58133 | 120.66730 | 23368 ft | 451 kts | 249° |
| 2026-05-07 20:55 | 14.57030 | 120.63669 | 23983 ft | 454 kts | 249° |
| 2026-05-07 20:55 | 14.55918 | 120.60584 | 24570 ft | 458 kts | 249° |
| 2026-05-07 20:56 | 14.54816 | 120.57528 | 25147 ft | 461 kts | 249° |
| 2026-05-07 20:56 | 14.53687 | 120.54400 | 25691 ft | 464 kts | 249° |
| 2026-05-07 20:56 | 14.52554 | 120.51260 | 26235 ft | 468 kts | 249° |
| 2026-05-07 20:56 | 14.51412 | 120.48098 | 26762 ft | 471 kts | 249° |
| 2026-05-07 20:57 | 14.50262 | 120.44916 | 27273 ft | 474 kts | 249° |
| 2026-05-07 20:57 | 14.49118 | 120.41748 | 27771 ft | 476 kts | 249° |
| 2026-05-07 20:57 | 14.47950 | 120.38518 | 28261 ft | 480 kts | 250° |
| 2026-05-07 20:57 | 14.46777 | 120.35273 | 28743 ft | 482 kts | 250° |
| 2026-05-07 20:58 | 14.45803 | 120.31998 | 29163 ft | 485 kts | 259° |
| 2026-05-07 20:58 | 14.45442 | 120.28518 | 29614 ft | 488 kts | 267° |
| 2026-05-07 20:58 | 14.45286 | 120.24997 | 30077 ft | 490 kts | 268° |
| 2026-05-07 20:58 | 14.45146 | 120.21518 | 30493 ft | 491 kts | 267° |
| 2026-05-07 20:59 | 14.44968 | 120.17963 | 30860 ft | 494 kts | 266° |
| 2026-05-07 20:59 | 14.44750 | 120.14452 | 31297 ft | 494 kts | 266° |
| 2026-05-07 20:59 | 14.44501 | 120.10907 | 31848 ft | 492 kts | 265° |
| 2026-05-07 20:59 | 14.44240 | 120.07377 | 32419 ft | 489 kts | 265° |
| 2026-05-07 21:00 | 14.43982 | 120.03923 | 32949 ft | 487 kts | 265° |
| 2026-05-07 21:00 | 14.43725 | 120.00444 | 33434 ft | 485 kts | 265° |
| 2026-05-07 21:00 | 14.43473 | 119.96993 | 33889 ft | 484 kts | 265° |
| 2026-05-07 21:00 | 14.43221 | 119.93519 | 34332 ft | 484 kts | 265° |
| 2026-05-07 21:01 | 14.42982 | 119.90083 | 34790 ft | 482 kts | 265° |
| 2026-05-07 21:01 | 14.42746 | 119.86618 | 35240 ft | 481 kts | 265° |
| 2026-05-07 21:01 | 14.42510 | 119.83163 | 35651 ft | 480 kts | 265° |
| 2026-05-07 21:01 | 14.42274 | 119.79756 | 36036 ft | 479 kts | 265° |
| 2026-05-07 21:02 | 14.42030 | 119.76311 | 36406 ft | 479 kts | 265° |
| 2026-05-07 21:02 | 14.41775 | 119.72896 | 36701 ft | 480 kts | 265° |
| 2026-05-07 21:02 | 14.41516 | 119.69500 | 37038 ft | 478 kts | 265° |
| 2026-05-07 21:02 | 14.41254 | 119.66071 | 37591 ft | 473 kts | 265° |
| 2026-05-07 21:03 | 14.41001 | 119.62726 | 37910 ft | 472 kts | 265° |
| 2026-05-07 21:03 | 14.40488 | 119.55928 | 37877 ft | 473 kts | 265° |
| 2026-05-07 21:04 | 14.39983 | 119.49247 | 37875 ft | 467 kts | 265° |
| 2026-05-07 21:04 | 14.39490 | 119.42588 | 37877 ft | 466 kts | 265° |
| 2026-05-07 21:05 | 14.38998 | 119.35906 | 37881 ft | 466 kts | 265° |
| 2026-05-07 21:05 | 14.38506 | 119.29257 | 37882 ft | 466 kts | 265° |
| 2026-05-07 21:06 | 14.38011 | 119.22594 | 37885 ft | 468 kts | 265° |
| 2026-05-07 21:06 | 14.37508 | 119.15876 | 37886 ft | 469 kts | 265° |
| 2026-05-07 21:07 | 14.37005 | 119.09178 | 37882 ft | 470 kts | 266° |
| 2026-05-07 21:07 | 14.36497 | 119.02448 | 37884 ft | 472 kts | 266° |
| 2026-05-07 21:08 | 14.35985 | 118.95678 | 37881 ft | 472 kts | 266° |
| 2026-05-07 21:08 | 14.35473 | 118.88920 | 37879 ft | 473 kts | 266° |
| 2026-05-07 21:09 | 14.34959 | 118.82182 | 37883 ft | 473 kts | 266° |
| 2026-05-07 21:09 | 14.34442 | 118.75427 | 37885 ft | 473 kts | 266° |
| 2026-05-07 21:10 | 14.33923 | 118.68683 | 37882 ft | 473 kts | 266° |
| 2026-05-07 21:10 | 14.33401 | 118.61903 | 37879 ft | 472 kts | 266° |
| 2026-05-07 21:11 | 14.32881 | 118.55167 | 37881 ft | 472 kts | 266° |
| 2026-05-07 21:11 | 14.32095 | 118.45057 | 37886 ft | 472 kts | 266° |
| 2026-05-07 21:12 | 14.31570 | 118.38330 | 37897 ft | 472 kts | 266° |
| 2026-05-07 21:12 | 14.31043 | 118.31584 | 37898 ft | 472 kts | 266° |
| 2026-05-07 21:13 | 14.30507 | 118.24817 | 37900 ft | 472 kts | 266° |
| 2026-05-07 21:13 | 14.29972 | 118.18068 | 37897 ft | 473 kts | 266° |
| 2026-05-07 21:14 | 14.29435 | 118.11329 | 37902 ft | 472 kts | 266° |
| 2026-05-07 21:14 | 14.28897 | 118.04598 | 37896 ft | 473 kts | 266° |
| 2026-05-07 21:15 | 14.28354 | 117.97829 | 37892 ft | 473 kts | 266° |
| 2026-05-07 21:15 | 14.27809 | 117.91049 | 37888 ft | 473 kts | 266° |
| 2026-05-07 21:16 | 14.27263 | 117.84280 | 37887 ft | 474 kts | 266° |
| 2026-05-07 21:16 | 14.26718 | 117.77541 | 37884 ft | 474 kts | 266° |
| 2026-05-07 21:17 | 14.26166 | 117.70768 | 37887 ft | 473 kts | 266° |
| 2026-05-07 21:17 | 14.25619 | 117.64030 | 37889 ft | 473 kts | 266° |
| 2026-05-07 21:18 | 14.25063 | 117.57243 | 37887 ft | 473 kts | 266° |
| 2026-05-07 21:18 | 14.24511 | 117.50517 | 37890 ft | 473 kts | 266° |
| 2026-05-07 21:19 | 14.24046 | 117.44884 | 37894 ft | 473 kts | 266° |
| 2026-05-07 21:19 | 14.23486 | 117.38112 | 37891 ft | 473 kts | 266° |
| 2026-05-07 21:20 | 14.22928 | 117.31375 | 37891 ft | 473 kts | 266° |
| 2026-05-07 21:20 | 14.22366 | 117.24618 | 37887 ft | 474 kts | 266° |
| 2026-05-07 21:21 | 14.21802 | 117.17863 | 37879 ft | 474 kts | 266° |
| 2026-05-07 21:21 | 14.21233 | 117.11066 | 37876 ft | 474 kts | 266° |
| 2026-05-07 21:22 | 14.20663 | 117.04296 | 37880 ft | 474 kts | 266° |
| 2026-05-07 21:22 | 14.20092 | 116.97527 | 37882 ft | 475 kts | 266° |
| 2026-05-07 21:23 | 14.19520 | 116.90753 | 37876 ft | 475 kts | 266° |
| 2026-05-07 21:23 | 14.18947 | 116.84020 | 37875 ft | 474 kts | 266° |
| 2026-05-07 21:24 | 14.18361 | 116.77218 | 37887 ft | 475 kts | 266° |
| 2026-05-07 21:24 | 14.17780 | 116.70483 | 37887 ft | 475 kts | 266° |
| 2026-05-07 21:25 | 14.17197 | 116.63714 | 37885 ft | 475 kts | 266° |
| 2026-05-07 21:25 | 14.16608 | 116.56908 | 37889 ft | 475 kts | 266° |
| 2026-05-07 21:26 | 14.16018 | 116.50134 | 37886 ft | 476 kts | 266° |
| 2026-05-07 21:26 | 14.15426 | 116.43327 | 37889 ft | 476 kts | 266° |
| 2026-05-07 21:27 | 14.14834 | 116.36539 | 37888 ft | 476 kts | 266° |
| 2026-05-07 21:27 | 14.14238 | 116.29762 | 37890 ft | 476 kts | 266° |
| 2026-05-07 21:28 | 14.13640 | 116.22956 | 37892 ft | 476 kts | 266° |
| 2026-05-07 21:28 | 14.13041 | 116.16155 | 37884 ft | 476 kts | 266° |
| 2026-05-07 21:29 | 14.12442 | 116.09384 | 37892 ft | 476 kts | 266° |
| 2026-05-07 21:29 | 14.11838 | 116.02584 | 37892 ft | 476 kts | 266° |
| 2026-05-07 21:30 | 14.11234 | 115.95803 | 37890 ft | 476 kts | 266° |
| 2026-05-07 21:30 | 14.10627 | 115.88988 | 37889 ft | 476 kts | 266° |
| 2026-05-07 21:31 | 14.10014 | 115.82189 | 37883 ft | 476 kts | 266° |
| 2026-05-07 21:31 | 14.09405 | 115.75422 | 37879 ft | 476 kts | 266° |
| 2026-05-07 21:32 | 14.08792 | 115.68622 | 37876 ft | 476 kts | 266° |
| 2026-05-07 21:32 | 14.08178 | 115.61838 | 37878 ft | 475 kts | 266° |
| 2026-05-07 21:33 | 14.07563 | 115.55080 | 37877 ft | 476 kts | 266° |
| 2026-05-07 21:33 | 14.06944 | 115.48270 | 37885 ft | 476 kts | 266° |
| 2026-05-07 21:34 | 14.06324 | 115.41497 | 37876 ft | 476 kts | 266° |
| 2026-05-07 21:34 | 14.05706 | 115.34741 | 37883 ft | 476 kts | 266° |
| 2026-05-07 21:35 | 14.05082 | 115.27951 | 37879 ft | 476 kts | 266° |
| 2026-05-07 21:35 | 14.04455 | 115.21152 | 37882 ft | 476 kts | 265° |
| 2026-05-07 21:36 | 14.03827 | 115.14373 | 37876 ft | 476 kts | 266° |
| 2026-05-07 21:36 | 14.03202 | 115.07609 | 37881 ft | 476 kts | 265° |
| 2026-05-07 21:37 | 14.02566 | 115.00809 | 37884 ft | 476 kts | 265° |
| 2026-05-07 21:37 | 14.01930 | 114.94012 | 37882 ft | 476 kts | 265° |
| 2026-05-07 21:38 | 14.01297 | 114.87233 | 37882 ft | 476 kts | 265° |
| 2026-05-07 21:38 | 14.00661 | 114.80472 | 37877 ft | 476 kts | 265° |
| 2026-05-07 21:39 | 14.00023 | 114.73682 | 37877 ft | 476 kts | 265° |
| 2026-05-07 21:39 | 13.99384 | 114.66921 | 37884 ft | 476 kts | 265° |
| 2026-05-07 21:40 | 13.98740 | 114.60124 | 37878 ft | 475 kts | 265° |
| 2026-05-07 21:40 | 13.98099 | 114.53390 | 37886 ft | 475 kts | 265° |
| 2026-05-07 21:41 | 13.97453 | 114.46606 | 37892 ft | 475 kts | 266° |
| 2026-05-07 21:41 | 13.97255 | 114.39833 | 37897 ft | 473 kts | 272° |
| 2026-05-07 21:42 | 13.97345 | 114.33089 | 37894 ft | 473 kts | 272° |
| 2026-05-07 21:42 | 13.97432 | 114.26303 | 37889 ft | 474 kts | 272° |
| 2026-05-07 21:43 | 13.97490 | 114.19552 | 37886 ft | 474 kts | 271° |
| 2026-05-07 21:43 | 13.97534 | 114.12742 | 37887 ft | 474 kts | 271° |
| 2026-05-07 21:44 | 13.97576 | 114.05969 | 37890 ft | 474 kts | 271° |
| 2026-05-07 21:44 | 13.97619 | 113.99169 | 37895 ft | 474 kts | 271° |
| 2026-05-07 21:45 | 13.97657 | 113.92399 | 37893 ft | 474 kts | 271° |
| 2026-05-07 21:45 | 13.97694 | 113.85631 | 37887 ft | 474 kts | 271° |
| 2026-05-07 21:46 | 13.97728 | 113.78814 | 37890 ft | 474 kts | 271° |
| 2026-05-07 21:46 | 13.97763 | 113.72041 | 37885 ft | 474 kts | 271° |
| 2026-05-07 21:47 | 13.97796 | 113.65234 | 37885 ft | 474 kts | 271° |
| 2026-05-07 21:47 | 13.97827 | 113.58439 | 37890 ft | 474 kts | 271° |
| 2026-05-07 21:48 | 13.97854 | 113.51683 | 37886 ft | 475 kts | 271° |
| 2026-05-07 21:48 | 13.97880 | 113.44882 | 37887 ft | 474 kts | 271° |
| 2026-05-07 21:49 | 13.97905 | 113.38085 | 37887 ft | 474 kts | 271° |
| 2026-05-07 21:49 | 13.97929 | 113.31318 | 37890 ft | 474 kts | 271° |
| 2026-05-07 21:50 | 13.97948 | 113.24551 | 37889 ft | 474 kts | 271° |
| 2026-05-07 21:50 | 13.97969 | 113.17767 | 37889 ft | 474 kts | 271° |
| 2026-05-07 21:51 | 13.97985 | 113.10944 | 37885 ft | 474 kts | 271° |
| 2026-05-07 21:51 | 13.98001 | 113.04189 | 37888 ft | 474 kts | 271° |
| 2026-05-07 21:52 | 13.98011 | 112.97391 | 37893 ft | 474 kts | 271° |
| 2026-05-07 21:52 | 13.98021 | 112.90637 | 37886 ft | 473 kts | 271° |
| 2026-05-07 21:53 | 13.98029 | 112.83880 | 37886 ft | 473 kts | 271° |
| 2026-05-07 21:53 | 13.98034 | 112.77075 | 37888 ft | 473 kts | 272° |
| 2026-05-07 21:54 | 13.98037 | 112.70327 | 37889 ft | 473 kts | 272° |
| 2026-05-07 21:54 | 13.98041 | 112.63535 | 37892 ft | 473 kts | 271° |
| 2026-05-07 21:55 | 13.98040 | 112.56785 | 37888 ft | 473 kts | 272° |
| 2026-05-07 21:55 | 13.98039 | 112.49999 | 37888 ft | 472 kts | 272° |
| 2026-05-07 21:56 | 13.98036 | 112.43261 | 37885 ft | 472 kts | 272° |
| 2026-05-07 21:56 | 13.98031 | 112.36503 | 37894 ft | 472 kts | 272° |
| 2026-05-07 21:57 | 13.98024 | 112.29724 | 37884 ft | 472 kts | 272° |
| 2026-05-07 21:57 | 13.98014 | 112.22983 | 37891 ft | 472 kts | 272° |
| 2026-05-07 21:58 | 13.98003 | 112.16200 | 37891 ft | 472 kts | 272° |
| 2026-05-07 21:58 | 13.97990 | 112.09479 | 37894 ft | 472 kts | 271° |
| 2026-05-07 21:59 | 13.97976 | 112.02737 | 37894 ft | 472 kts | 271° |
| 2026-05-07 21:59 | 13.97959 | 111.95951 | 37888 ft | 472 kts | 271° |
| 2026-05-07 22:00 | 13.97938 | 111.89176 | 37885 ft | 472 kts | 271° |
| 2026-05-07 22:00 | 13.97918 | 111.82428 | 37892 ft | 472 kts | 271° |
| 2026-05-07 22:01 | 13.97897 | 111.75682 | 37890 ft | 472 kts | 271° |
| 2026-05-07 22:01 | 13.97873 | 111.68932 | 37894 ft | 472 kts | 271° |
| 2026-05-07 22:02 | 13.97847 | 111.62152 | 37892 ft | 472 kts | 271° |
| 2026-05-07 22:02 | 13.97819 | 111.55396 | 37900 ft | 472 kts | 271° |
| 2026-05-07 22:03 | 13.97789 | 111.48640 | 37899 ft | 472 kts | 271° |
| 2026-05-07 22:03 | 13.97760 | 111.41928 | 37895 ft | 472 kts | 271° |
| 2026-05-07 22:04 | 13.97728 | 111.35133 | 37900 ft | 472 kts | 271° |
| 2026-05-07 22:04 | 13.97693 | 111.28394 | 37901 ft | 472 kts | 271° |
| 2026-05-07 22:05 | 13.97659 | 111.21649 | 37901 ft | 472 kts | 271° |
| 2026-05-07 22:05 | 13.97621 | 111.14897 | 37898 ft | 472 kts | 271° |
| 2026-05-07 22:06 | 13.97582 | 111.08138 | 37895 ft | 472 kts | 271° |
| 2026-05-07 22:06 | 13.97538 | 111.01345 | 37901 ft | 472 kts | 271° |
| 2026-05-07 22:07 | 13.97497 | 110.94631 | 37896 ft | 472 kts | 271° |
| 2026-05-07 22:07 | 13.97453 | 110.87850 | 37896 ft | 473 kts | 271° |
| 2026-05-07 22:08 | 13.97406 | 110.81098 | 37895 ft | 472 kts | 271° |
| 2026-05-07 22:08 | 13.97357 | 110.74359 | 37897 ft | 472 kts | 271° |
| 2026-05-07 22:09 | 13.97306 | 110.67572 | 37896 ft | 472 kts | 271° |
| 2026-05-07 22:09 | 13.97254 | 110.60817 | 37903 ft | 472 kts | 271° |
| 2026-05-07 22:10 | 13.97200 | 110.54108 | 37895 ft | 472 kts | 271° |
| 2026-05-07 22:10 | 13.97154 | 110.48475 | 37901 ft | 472 kts | 271° |
| 2026-05-07 22:11 | 13.97097 | 110.41738 | 37897 ft | 471 kts | 271° |
| 2026-05-07 22:11 | 13.97036 | 110.34957 | 37902 ft | 471 kts | 271° |
| 2026-05-07 22:12 | 13.96975 | 110.28243 | 37903 ft | 471 kts | 271° |
| 2026-05-07 22:12 | 13.96913 | 110.21509 | 37909 ft | 471 kts | 271° |
| 2026-05-07 22:13 | 13.96848 | 110.14750 | 37908 ft | 471 kts | 271° |
| 2026-05-07 22:13 | 13.96781 | 110.08001 | 37907 ft | 471 kts | 271° |
| 2026-05-07 22:14 | 13.96712 | 110.01266 | 37908 ft | 471 kts | 271° |
| 2026-05-07 22:14 | 13.96652 | 109.94531 | 37907 ft | 471 kts | 272° |
| 2026-05-07 22:15 | 13.96604 | 109.87781 | 37904 ft | 471 kts | 272° |
| 2026-05-07 22:15 | 13.96552 | 109.81029 | 37908 ft | 471 kts | 271° |
| 2026-05-07 22:16 | 13.96496 | 109.74302 | 37909 ft | 471 kts | 271° |
| 2026-05-07 22:16 | 13.96439 | 109.67567 | 37917 ft | 471 kts | 271° |
| 2026-05-07 22:17 | 13.96380 | 109.60824 | 37917 ft | 471 kts | 271° |
| 2026-05-07 22:17 | 13.96318 | 109.54052 | 37916 ft | 471 kts | 271° |
| 2026-05-07 22:18 | 13.96207 | 109.43953 | 37918 ft | 472 kts | 271° |
| 2026-05-07 22:19 | 13.96126 | 109.37179 | 37914 ft | 472 kts | 271° |
| 2026-05-07 22:19 | 13.96040 | 109.30475 | 37906 ft | 472 kts | 271° |
| 2026-05-07 22:20 | 13.95954 | 109.23719 | 37907 ft | 472 kts | 271° |
| 2026-05-07 22:20 | 13.95868 | 109.16965 | 37912 ft | 472 kts | 271° |
| 2026-05-07 22:21 | 13.95779 | 109.10205 | 37909 ft | 473 kts | 271° |
| 2026-05-07 22:21 | 13.95720 | 109.03416 | 37905 ft | 472 kts | 274° |
| 2026-05-07 22:22 | 13.96019 | 108.96687 | 37911 ft | 472 kts | 275° |
| 2026-05-07 22:22 | 13.96392 | 108.89956 | 37905 ft | 472 kts | 275° |
| 2026-05-07 22:23 | 13.96750 | 108.83203 | 37908 ft | 472 kts | 275° |
| 2026-05-07 22:23 | 13.97085 | 108.76457 | 37913 ft | 472 kts | 275° |
| 2026-05-07 22:24 | 13.97412 | 108.69723 | 37907 ft | 472 kts | 275° |
| 2026-05-07 22:24 | 13.97741 | 108.62956 | 37904 ft | 472 kts | 275° |
| 2026-05-07 22:25 | 13.98066 | 108.56228 | 37908 ft | 472 kts | 275° |
| 2026-05-07 22:25 | 13.98391 | 108.49455 | 37906 ft | 472 kts | 275° |
| 2026-05-07 22:26 | 13.98712 | 108.42741 | 37909 ft | 472 kts | 275° |
| 2026-05-07 22:26 | 13.99033 | 108.35982 | 37910 ft | 471 kts | 275° |
| 2026-05-07 22:27 | 13.99351 | 108.29262 | 37910 ft | 472 kts | 275° |
| 2026-05-07 22:27 | 13.99670 | 108.22482 | 37905 ft | 472 kts | 275° |
| 2026-05-07 22:28 | 13.99984 | 108.15738 | 37909 ft | 472 kts | 275° |
| 2026-05-07 22:28 | 14.00297 | 108.08993 | 37899 ft | 472 kts | 275° |
| 2026-05-07 22:29 | 14.00588 | 108.02244 | 37895 ft | 473 kts | 272° |
| 2026-05-07 22:29 | 14.00375 | 107.95487 | 37903 ft | 474 kts | 269° |
| 2026-05-07 22:30 | 14.00065 | 107.88682 | 37898 ft | 474 kts | 269° |
| 2026-05-07 22:30 | 13.99801 | 107.81910 | 37890 ft | 473 kts | 270° |
| 2026-05-07 22:31 | 13.99555 | 107.75163 | 37901 ft | 473 kts | 270° |
| 2026-05-07 22:31 | 13.99307 | 107.68361 | 37900 ft | 474 kts | 270° |
| 2026-05-07 22:32 | 13.99055 | 107.61603 | 37901 ft | 474 kts | 270° |
| 2026-05-07 22:32 | 13.98800 | 107.54835 | 37898 ft | 473 kts | 270° |
| 2026-05-07 22:33 | 13.98543 | 107.48079 | 37897 ft | 473 kts | 270° |
| 2026-05-07 22:33 | 13.98239 | 107.41280 | 37900 ft | 474 kts | 266° |
| 2026-05-07 22:34 | 13.97261 | 107.34578 | 37908 ft | 475 kts | 262° |
| 2026-05-07 22:34 | 13.96180 | 107.27884 | 37901 ft | 475 kts | 263° |
| 2026-05-07 22:35 | 13.95141 | 107.21193 | 37896 ft | 475 kts | 261° |
| 2026-05-07 22:35 | 13.92885 | 107.14778 | 37901 ft | 479 kts | 243° |
| 2026-05-07 22:36 | 13.88940 | 107.09210 | 37890 ft | 483 kts | 231° |
| 2026-05-07 22:36 | 13.84617 | 107.03964 | 37897 ft | 483 kts | 232° |
| 2026-05-07 22:37 | 13.80385 | 106.98609 | 37888 ft | 482 kts | 236° |
| 2026-05-07 22:37 | 13.77327 | 106.92524 | 37897 ft | 477 kts | 253° |
| 2026-05-07 22:38 | 13.75912 | 106.85902 | 37872 ft | 474 kts | 263° |
| 2026-05-07 22:38 | 13.74931 | 106.79230 | 37892 ft | 474 kts | 263° |
| 2026-05-07 22:39 | 13.73917 | 106.72548 | 37890 ft | 474 kts | 263° |
| 2026-05-07 22:39 | 13.72858 | 106.65853 | 37889 ft | 474 kts | 263° |
| 2026-05-07 22:40 | 13.71777 | 106.59126 | 37885 ft | 475 kts | 263° |
| 2026-05-07 22:40 | 13.70700 | 106.52428 | 37879 ft | 475 kts | 263° |
| 2026-05-07 22:41 | 13.69633 | 106.45778 | 37877 ft | 474 kts | 263° |
| 2026-05-07 22:41 | 13.68555 | 106.39065 | 37878 ft | 473 kts | 263° |
| 2026-05-07 22:42 | 13.67483 | 106.32412 | 37882 ft | 473 kts | 263° |
| 2026-05-07 22:42 | 13.66405 | 106.25746 | 37876 ft | 473 kts | 263° |
| 2026-05-07 22:43 | 13.65328 | 106.19084 | 37870 ft | 473 kts | 263° |
| 2026-05-07 22:43 | 13.64306 | 106.12421 | 37868 ft | 472 kts | 266° |
| 2026-05-07 22:44 | 13.64196 | 106.05715 | 37889 ft | 469 kts | 274° |
| 2026-05-07 22:44 | 13.64468 | 105.99003 | 37864 ft | 469 kts | 274° |
| 2026-05-07 22:45 | 13.64720 | 105.92309 | 37879 ft | 469 kts | 274° |
| 2026-05-07 22:45 | 13.64946 | 105.85605 | 37865 ft | 470 kts | 274° |
| 2026-05-07 22:46 | 13.65160 | 105.78900 | 37866 ft | 470 kts | 274° |
| 2026-05-07 22:46 | 13.65372 | 105.72162 | 37878 ft | 470 kts | 274° |
| 2026-05-07 22:47 | 13.65583 | 105.65461 | 37876 ft | 470 kts | 274° |
| 2026-05-07 22:47 | 13.65792 | 105.58722 | 37864 ft | 471 kts | 274° |
| 2026-05-07 22:48 | 13.65999 | 105.51993 | 37869 ft | 471 kts | 274° |
| 2026-05-07 22:48 | 13.66205 | 105.45276 | 37873 ft | 470 kts | 274° |
| 2026-05-07 22:49 | 13.66409 | 105.38564 | 37865 ft | 470 kts | 274° |
| 2026-05-07 22:49 | 13.66611 | 105.31870 | 37868 ft | 470 kts | 274° |
| 2026-05-07 22:50 | 13.66811 | 105.25157 | 37871 ft | 470 kts | 274° |
| 2026-05-07 22:50 | 13.67009 | 105.18460 | 37865 ft | 469 kts | 274° |
| 2026-05-07 22:51 | 13.67207 | 105.11726 | 37856 ft | 469 kts | 273° |
| 2026-05-07 22:51 | 13.67399 | 105.05050 | 37863 ft | 469 kts | 273° |
| 2026-05-07 22:52 | 13.67589 | 104.98316 | 37859 ft | 470 kts | 273° |
| 2026-05-07 22:52 | 13.67776 | 104.91620 | 37862 ft | 470 kts | 273° |
| 2026-05-07 22:53 | 13.67961 | 104.84908 | 37869 ft | 470 kts | 273° |
| 2026-05-07 22:53 | 13.68145 | 104.78201 | 37860 ft | 470 kts | 273° |
| 2026-05-07 22:54 | 13.68328 | 104.71462 | 37858 ft | 470 kts | 273° |
| 2026-05-07 22:54 | 13.68510 | 104.64773 | 37859 ft | 470 kts | 273° |
| 2026-05-07 22:55 | 13.68686 | 104.58041 | 37865 ft | 470 kts | 273° |
| 2026-05-07 22:55 | 13.68861 | 104.51339 | 37860 ft | 470 kts | 273° |
| 2026-05-07 22:56 | 13.69038 | 104.44598 | 37862 ft | 470 kts | 273° |
| 2026-05-07 22:56 | 13.69212 | 104.37897 | 37857 ft | 471 kts | 273° |
| 2026-05-07 22:57 | 13.69383 | 104.31175 | 37859 ft | 471 kts | 273° |
| 2026-05-07 22:57 | 13.69552 | 104.24459 | 37860 ft | 471 kts | 273° |
| 2026-05-07 22:58 | 13.69720 | 104.17747 | 37861 ft | 470 kts | 273° |
| 2026-05-07 22:58 | 13.69888 | 104.11029 | 37860 ft | 470 kts | 273° |
| 2026-05-07 22:59 | 13.70051 | 104.04314 | 37864 ft | 470 kts | 273° |
| 2026-05-07 22:59 | 13.70214 | 103.97577 | 37861 ft | 470 kts | 273° |
| 2026-05-07 23:00 | 13.70373 | 103.90881 | 37858 ft | 470 kts | 273° |
| 2026-05-07 23:00 | 13.70533 | 103.84142 | 37862 ft | 470 kts | 273° |
| 2026-05-07 23:01 | 13.70690 | 103.77430 | 37859 ft | 470 kts | 272° |
| 2026-05-07 23:01 | 13.70844 | 103.70708 | 37857 ft | 470 kts | 272° |
| 2026-05-07 23:02 | 13.70967 | 103.65115 | 37861 ft | 471 kts | 272° |
| 2026-05-07 23:02 | 13.71144 | 103.57262 | 37865 ft | 471 kts | 272° |
| 2026-05-07 23:03 | 13.71269 | 103.51645 | 37860 ft | 471 kts | 272° |
| 2026-05-07 23:03 | 13.71412 | 103.44956 | 37866 ft | 471 kts | 272° |
| 2026-05-07 23:04 | 13.71555 | 103.38195 | 37862 ft | 471 kts | 272° |
| 2026-05-07 23:04 | 13.71699 | 103.31476 | 37866 ft | 472 kts | 272° |
| 2026-05-07 23:05 | 13.71842 | 103.24723 | 37869 ft | 472 kts | 272° |
| 2026-05-07 23:05 | 13.71980 | 103.17983 | 37868 ft | 472 kts | 272° |
| 2026-05-07 23:06 | 13.72116 | 103.11255 | 37869 ft | 472 kts | 272° |
| 2026-05-07 23:06 | 13.72252 | 103.04491 | 37875 ft | 473 kts | 272° |
| 2026-05-07 23:07 | 13.72387 | 102.97710 | 37867 ft | 473 kts | 272° |
| 2026-05-07 23:07 | 13.72519 | 102.90967 | 37882 ft | 473 kts | 272° |
| 2026-05-07 23:08 | 13.72650 | 102.84170 | 37871 ft | 474 kts | 272° |
| 2026-05-07 23:08 | 13.72778 | 102.77412 | 37866 ft | 474 kts | 272° |
| 2026-05-07 23:09 | 13.72906 | 102.70599 | 37878 ft | 475 kts | 272° |
| 2026-05-07 23:09 | 13.73031 | 102.63835 | 37882 ft | 475 kts | 272° |
| 2026-05-07 23:10 | 13.73164 | 102.57066 | 37877 ft | 476 kts | 272° |
| 2026-05-07 23:10 | 13.73296 | 102.50259 | 37882 ft | 476 kts | 272° |
| 2026-05-07 23:11 | 13.73426 | 102.43446 | 37314 ft | 481 kts | 272° |
| 2026-05-07 23:11 | 13.73490 | 102.39999 | 36863 ft | 475 kts | 272° |
| 2026-05-07 23:11 | 13.73555 | 102.36614 | 36414 ft | 469 kts | 272° |
| 2026-05-07 23:11 | 13.73617 | 102.33307 | 35974 ft | 464 kts | 272° |
| 2026-05-07 23:12 | 13.73677 | 102.29990 | 35527 ft | 460 kts | 272° |
| 2026-05-07 23:12 | 13.73665 | 102.26712 | 35054 ft | 457 kts | 267° |
| 2026-05-07 23:12 | 13.73180 | 102.23484 | 34598 ft | 454 kts | 257° |
| 2026-05-07 23:12 | 13.72271 | 102.20422 | 34143 ft | 452 kts | 250° |
| 2026-05-07 23:13 | 13.70939 | 102.17495 | 33690 ft | 450 kts | 243° |
| 2026-05-07 23:13 | 13.69456 | 102.14669 | 33225 ft | 446 kts | 242° |
| 2026-05-07 23:13 | 13.67963 | 102.11868 | 32762 ft | 443 kts | 242° |
| 2026-05-07 23:13 | 13.66503 | 102.09122 | 32306 ft | 441 kts | 242° |
| 2026-05-07 23:14 | 13.65040 | 102.06349 | 31853 ft | 438 kts | 242° |
| 2026-05-07 23:14 | 13.63600 | 102.03594 | 31383 ft | 435 kts | 242° |
| 2026-05-07 23:14 | 13.62187 | 102.00881 | 30921 ft | 433 kts | 242° |
| 2026-05-07 23:14 | 13.60765 | 101.98140 | 30473 ft | 430 kts | 242° |
| 2026-05-07 23:15 | 13.59372 | 101.95452 | 30035 ft | 427 kts | 241° |
| 2026-05-07 23:15 | 13.57970 | 101.92746 | 29552 ft | 425 kts | 241° |
| 2026-05-07 23:15 | 13.56599 | 101.90101 | 29105 ft | 422 kts | 241° |
| 2026-05-07 23:15 | 13.55220 | 101.87440 | 28649 ft | 420 kts | 241° |
| 2026-05-07 23:16 | 13.53847 | 101.84795 | 28186 ft | 418 kts | 241° |
| 2026-05-07 23:16 | 13.52476 | 101.82156 | 27724 ft | 416 kts | 241° |
| 2026-05-07 23:16 | 13.51115 | 101.79537 | 27272 ft | 414 kts | 241° |
| 2026-05-07 23:16 | 13.49759 | 101.76929 | 26816 ft | 412 kts | 241° |
| 2026-05-07 23:17 | 13.48413 | 101.74338 | 26365 ft | 410 kts | 241° |
| 2026-05-07 23:17 | 13.47085 | 101.71786 | 25921 ft | 408 kts | 241° |
| 2026-05-07 23:17 | 13.45749 | 101.69213 | 25472 ft | 406 kts | 240° |
| 2026-05-07 23:17 | 13.44414 | 101.66649 | 25022 ft | 404 kts | 241° |
| 2026-05-07 23:18 | 13.43102 | 101.64125 | 24567 ft | 402 kts | 240° |
| 2026-05-07 23:18 | 13.41790 | 101.61590 | 24135 ft | 401 kts | 242° |
| 2026-05-07 23:18 | 13.40703 | 101.58946 | 23690 ft | 400 kts | 250° |
| 2026-05-07 23:18 | 13.39942 | 101.56231 | 23259 ft | 399 kts | 256° |
| 2026-05-07 23:19 | 13.39472 | 101.53429 | 22826 ft | 397 kts | 262° |
| 2026-05-07 23:19 | 13.39132 | 101.50618 | 22405 ft | 395 kts | 262° |
| 2026-05-07 23:19 | 13.38810 | 101.47815 | 21956 ft | 394 kts | 262° |
| 2026-05-07 23:19 | 13.38488 | 101.45027 | 21521 ft | 392 kts | 262° |
| 2026-05-07 23:20 | 13.38163 | 101.42284 | 21053 ft | 390 kts | 262° |
| 2026-05-07 23:20 | 13.37824 | 101.39501 | 20614 ft | 389 kts | 262° |
| 2026-05-07 23:20 | 13.37484 | 101.36744 | 20175 ft | 388 kts | 262° |
| 2026-05-07 23:20 | 13.37148 | 101.34028 | 19743 ft | 386 kts | 262° |
| 2026-05-07 23:21 | 13.36808 | 101.31289 | 19308 ft | 385 kts | 262° |
| 2026-05-07 23:21 | 13.36469 | 101.28563 | 18875 ft | 382 kts | 262° |
| 2026-05-07 23:21 | 13.36499 | 101.25863 | 18418 ft | 377 kts | 282° |
| 2026-05-07 23:21 | 13.37450 | 101.23412 | 18002 ft | 375 kts | 303° |
| 2026-05-07 23:22 | 13.39168 | 101.21420 | 17615 ft | 371 kts | 323° |
| 2026-05-07 23:22 | 13.41370 | 101.20068 | 17246 ft | 366 kts | 338° |
| 2026-05-07 23:22 | 13.43789 | 101.19420 | 16855 ft | 360 kts | 356° |
| 2026-05-07 23:22 | 13.44630 | 101.19361 | 16748 ft | 358 kts | 359° |